Saratoga, CA

9:55 AM PDT on September 04, 2015 (GMT -0700)
Scotland Dr. near Glasgow Dr. | | Change Station
CLOSE
Current Station
Personal Weather Station
Location: Saratoga, CA
Elevation: 375 ft
Nearby Weather Stations

Elev 375 ft 37.27 °N, 122.02 °W | Updated 2 seconds ago

Partly Cloudy
Partly Cloudy
67.6 °F
Feels Like 67.6 °F
N
0.1
Wind Variable Wind from NE
Gusts 2.3 mph

Today
High -- | Low -- °F
--% Chance of Precip.
Yesterday
High -- | Low -- °F
Precip. -- in
6:41 AM 7:32 PM
Waning Gibbous, 58% visible
Pressure 29.90 in
Visibility 10.0 miles
Clouds Few 1700 ft
Dew Point 50 °F
Humidity 53%
Rainfall 0.00 in
Snow Depth Not available.
UV 2.9 out of 12
Pollen 8.30 out of 12
Air Quality Not available.
Flu Activity Not available.
METAR KSJC 041553Z 13010KT 10SM FEW017 16/11 A2990 RMK AO2 SLP123 T01560106
Pressure 29.90 in
Visibility 10.0 miles
Clouds Few 1700 ft
Dew Point 50 °F
Humidity 53%
Rainfall 0.00 in
Snow Depth Not available.
UV 2.9 out of 12
Pollen 8.30 out of 12
Air Quality Not available.
Flu Activity Not available.
METAR KSJC 041553Z 13010KT 10SM FEW017 16/11 A2990 RMK AO2 SLP123 T01560106

10-Day Weather Forecast

×

Almanac

Astronomy

Sep. 04, 2015 Rise Set
Actual Time
Civil Twilight
Nautical Twilight
Astronomical Twilight
Moon
Length of Visible Light
Length of Day
Tomorrow will be .
, % of the Moon is Illuminated

Today's Extremes

State Highs State Lows

Community

WunderPhotos

Upload Photos

1,852,226 photos uploaded!

WunderBlogs® & News

Nearby

Air Quality

  Air Quality AQ Index Pollutant
Not available.

Snow Depth

Station Depth Elevation

Earthquake Activity

City Distance Mag. Time & Date
Minimum magnitude displayed is 2.5.

Coastal Water Temperatures

Place Temperature

Stations

Nearby Weather Stations

Station Location Temp. Windchill Dew Point Humidity Wind Precip. Elev Updated Type